createdAt,value
2023-08-24T00:00:48.424Z,17.60
2023-08-24T00:03:35.696Z,17.60
2023-08-24T00:06:05.647Z,17.60
2023-08-24T00:08:32.927Z,17.60
2023-08-24T00:11:00.368Z,17.60
2023-08-24T00:13:27.512Z,17.50
2023-08-24T00:15:57.935Z,17.50
2023-08-24T00:18:26.010Z,17.40
2023-08-24T00:21:02.077Z,17.40
2023-08-24T00:23:31.703Z,17.40
2023-08-24T00:25:59.076Z,17.40
2023-08-24T00:28:28.845Z,17.30
2023-08-24T00:30:56.238Z,17.30
2023-08-24T00:33:23.845Z,17.30
2023-08-24T00:35:51.373Z,17.30
2023-08-24T00:38:18.546Z,17.30
2023-08-24T00:40:46.036Z,17.30
2023-08-24T00:43:15.470Z,17.30
2023-08-24T00:45:43.154Z,17.20
2023-08-24T00:48:12.806Z,17.20
2023-08-24T00:50:42.894Z,17.20
2023-08-24T00:53:11.604Z,17.20
2023-08-24T00:55:42.219Z,17.20
2023-08-24T00:58:09.492Z,17.20
2023-08-24T01:00:37.328Z,17.20
2023-08-24T01:03:05.122Z,17.10
2023-08-24T01:05:34.931Z,17.10
2023-08-24T01:08:02.193Z,17.10
2023-08-24T01:10:56.611Z,17.10
2023-08-24T01:13:38.044Z,17.00
2023-08-24T01:16:13.008Z,17.00
2023-08-24T01:18:41.857Z,17.00
2023-08-24T01:21:09.920Z,17.00
2023-08-24T01:23:55.217Z,17.00
2023-08-24T01:26:22.864Z,17.00
2023-08-24T01:28:50.861Z,16.90
2023-08-24T01:31:23.168Z,16.90
2023-08-24T01:33:50.426Z,16.90
2023-08-24T01:36:17.851Z,16.90
2023-08-24T01:38:51.188Z,16.90
2023-08-24T01:41:29.220Z,16.90
2023-08-24T01:43:58.396Z,16.90
2023-08-24T01:46:29.664Z,16.90
2023-08-24T01:49:02.083Z,16.90
2023-08-24T01:51:29.618Z,16.90
2023-08-24T01:53:57.492Z,16.90
2023-08-24T01:56:24.963Z,16.90
2023-08-24T01:58:54.685Z,16.90
2023-08-24T02:01:24.342Z,16.80
2023-08-24T02:03:55.953Z,16.80
2023-08-24T02:06:23.469Z,16.70
2023-08-24T02:08:53.063Z,16.70
2023-08-24T02:11:20.517Z,16.70
2023-08-24T02:13:50.096Z,16.60
2023-08-24T02:16:17.600Z,16.60
2023-08-24T02:18:47.006Z,16.60
2023-08-24T02:21:16.873Z,16.60
2023-08-24T02:23:43.978Z,16.60
2023-08-24T02:26:11.421Z,16.60
2023-08-24T02:28:39.266Z,16.60
2023-08-24T02:31:09.383Z,16.60
2023-08-24T02:33:37.285Z,16.50
2023-08-24T02:36:04.967Z,16.50
2023-08-24T02:38:34.388Z,16.50
2023-08-24T02:41:06.221Z,16.50
2023-08-24T02:43:36.863Z,16.50
2023-08-24T02:46:09.407Z,16.50
2023-08-24T02:48:38.738Z,16.50
2023-08-24T02:51:11.465Z,16.50
2023-08-24T02:53:38.640Z,16.40
2023-08-24T02:56:08.328Z,16.40
2023-08-24T02:58:35.570Z,16.40
2023-08-24T03:01:06.420Z,16.40
2023-08-24T03:03:33.719Z,16.40
2023-08-24T03:06:05.429Z,16.30
2023-08-24T03:08:33.641Z,16.30
2023-08-24T03:11:02.004Z,16.30
2023-08-24T03:13:29.995Z,16.30
2023-08-24T03:15:57.907Z,16.30
2023-08-24T03:18:25.146Z,16.30
2023-08-24T03:20:52.573Z,16.30
2023-08-24T03:23:19.793Z,16.30
2023-08-24T03:25:47.230Z,16.30
2023-08-24T03:28:16.681Z,16.30
2023-08-24T03:30:49.277Z,16.30
2023-08-24T03:33:16.621Z,16.20
2023-08-24T03:35:45.017Z,16.20
2023-08-24T03:38:14.867Z,16.20
2023-08-24T03:40:42.436Z,16.20
2023-08-24T03:43:12.494Z,16.20
2023-08-24T03:45:43.442Z,16.20
2023-08-24T03:48:12.561Z,16.20
2023-08-24T03:50:39.992Z,16.20
2023-08-24T03:53:07.765Z,16.30
2023-08-24T03:55:35.213Z,16.30
2023-08-24T03:58:17.360Z,16.30
2023-08-24T04:00:49.273Z,16.40
2023-08-24T04:03:16.582Z,16.40
2023-08-24T04:05:44.116Z,16.50
2023-08-24T04:08:11.289Z,16.50
2023-08-24T04:10:38.922Z,16.60
2023-08-24T04:13:06.073Z,16.60
2023-08-24T04:15:33.508Z,16.70
2023-08-24T04:18:00.731Z,16.80
2023-08-24T04:20:28.164Z,16.90
2023-08-24T04:22:57.410Z,17.00
2023-08-24T04:25:25.013Z,17.20
2023-08-24T04:27:52.586Z,17.30
2023-08-24T04:30:25.697Z,17.50
2023-08-24T04:32:52.849Z,17.70
2023-08-24T04:35:20.370Z,17.90
2023-08-24T04:37:49.784Z,18.10
2023-08-24T04:40:19.616Z,18.30
2023-08-24T04:42:51.483Z,18.60
2023-08-24T04:45:21.147Z,18.80
2023-08-24T04:47:51.056Z,19.10
2023-08-24T04:50:18.702Z,19.40
2023-08-24T04:52:45.751Z,19.70
2023-08-24T04:55:17.956Z,20.00
2023-08-24T04:57:48.813Z,20.30
2023-08-24T05:00:17.154Z,20.70
2023-08-24T05:02:44.464Z,21.00
2023-08-24T05:05:16.611Z,21.40
2023-08-24T05:07:45.932Z,21.90
2023-08-24T05:10:13.457Z,22.70
2023-08-24T05:12:42.704Z,23.50
2023-08-24T05:15:11.906Z,24.50
2023-08-24T05:17:39.085Z,25.50
2023-08-24T05:20:07.918Z,26.90
2023-08-24T05:22:35.410Z,28.40
2023-08-24T05:25:02.984Z,29.70
2023-08-24T05:27:30.183Z,30.90
2023-08-24T05:29:57.683Z,31.70
2023-08-24T05:32:27.594Z,32.80
2023-08-24T05:34:55.016Z,33.40
2023-08-24T05:37:24.850Z,34.00
2023-08-24T05:39:54.709Z,34.90
2023-08-24T05:42:21.826Z,35.70
2023-08-24T05:44:49.239Z,36.60
2023-08-24T05:47:16.353Z,37.60
2023-08-24T05:49:48.327Z,38.20
2023-08-24T05:52:17.664Z,38.70
2023-08-24T05:54:47.518Z,39.30
2023-08-24T05:57:19.790Z,40.00
2023-08-24T05:59:49.592Z,40.70
2023-08-24T06:02:19.848Z,41.10
2023-08-24T06:04:49.610Z,41.70
2023-08-24T06:07:17.646Z,42.10
2023-08-24T06:09:47.632Z,42.30
2023-08-24T06:12:14.762Z,43.00
2023-08-24T06:14:45.363Z,43.60
2023-08-24T06:17:12.509Z,43.40
2023-08-24T06:19:39.938Z,43.70
2023-08-24T06:22:07.089Z,44.10
2023-08-24T06:24:34.600Z,44.60
2023-08-24T06:27:01.700Z,44.10
2023-08-24T06:29:30.279Z,44.60
2023-08-24T06:31:57.718Z,44.40
2023-08-24T06:34:25.171Z,45.30
2023-08-24T06:36:54.419Z,45.50
2023-08-24T06:39:24.148Z,46.40
2023-08-24T06:41:53.527Z,47.00
2023-08-24T06:44:21.073Z,47.60
2023-08-24T06:46:48.212Z,48.20
2023-08-24T06:49:15.670Z,48.70
2023-08-24T06:51:45.262Z,49.10
2023-08-24T06:54:15.236Z,49.70
2023-08-24T06:56:44.846Z,49.90
2023-08-24T06:59:12.470Z,49.30
2023-08-24T07:01:39.797Z,49.50
2023-08-24T07:04:07.348Z,49.30
2023-08-24T07:06:35.306Z,49.90
2023-08-24T07:09:02.845Z,50.00
2023-08-24T07:11:29.962Z,50.00
2023-08-24T07:13:59.562Z,50.60
2023-08-24T07:16:35.149Z,50.00
2023-08-24T07:19:02.595Z,49.60
2023-08-24T07:21:32.166Z,49.90
2023-08-24T07:24:02.238Z,50.60
2023-08-24T07:26:29.415Z,51.90
2023-08-24T07:28:59.266Z,53.10
2023-08-24T07:31:26.777Z,52.60
2023-08-24T07:33:56.572Z,49.20
2023-08-24T07:36:23.857Z,45.10
2023-08-24T07:38:51.370Z,41.50
2023-08-24T07:41:18.561Z,39.20
2023-08-24T07:43:48.566Z,37.80
2023-08-24T07:46:17.885Z,36.40
2023-08-24T07:48:47.784Z,35.20
2023-08-24T07:51:14.931Z,34.20
2023-08-24T07:53:42.323Z,33.80
2023-08-24T07:56:16.988Z,33.40
2023-08-24T07:58:44.534Z,33.10
2023-08-24T08:01:14.537Z,32.90
2023-08-24T08:03:44.275Z,32.90
2023-08-24T08:06:11.460Z,32.70
2023-08-24T08:08:38.933Z,32.60
2023-08-24T08:11:06.171Z,32.60
2023-08-24T08:13:33.561Z,32.60
2023-08-24T08:16:08.275Z,32.60
2023-08-24T08:18:37.158Z,32.60
2023-08-24T08:21:19.736Z,32.60
2023-08-24T08:23:49.290Z,32.60
2023-08-24T08:26:17.745Z,32.60
2023-08-24T08:28:47.614Z,32.60
2023-08-24T08:31:21.091Z,32.20
2023-08-24T08:33:52.427Z,31.70
2023-08-24T08:36:24.070Z,31.80
2023-08-24T08:38:51.514Z,31.80
2023-08-24T08:41:22.461Z,31.70
2023-08-24T08:43:50.261Z,31.80
2023-08-24T08:46:17.539Z,31.80
2023-08-24T08:48:49.942Z,31.80
2023-08-24T08:51:18.372Z,31.70
2023-08-24T08:53:45.850Z,31.50
2023-08-24T08:56:15.539Z,31.50
2023-08-24T08:58:45.184Z,31.40
2023-08-24T09:01:15.511Z,31.40
2023-08-24T09:03:44.048Z,31.50
2023-08-24T09:06:13.697Z,31.50
2023-08-24T09:08:41.242Z,31.70
2023-08-24T09:11:09.490Z,31.50
2023-08-24T09:13:37.171Z,31.00
2023-08-24T09:16:07.215Z,30.90
2023-08-24T09:18:39.375Z,31.40
2023-08-24T09:21:11.782Z,31.70
2023-08-24T09:23:52.995Z,31.80
2023-08-24T09:26:30.302Z,31.70
2023-08-24T09:28:58.574Z,31.60
2023-08-24T09:31:38.947Z,31.40
2023-08-24T09:34:06.994Z,31.60
2023-08-24T09:36:39.552Z,31.70
2023-08-24T09:39:07.360Z,31.60
2023-08-24T09:41:48.194Z,31.60
2023-08-24T09:44:17.987Z,31.60
2023-08-24T09:46:45.388Z,31.70
2023-08-24T09:49:14.872Z,31.80
2023-08-24T09:51:45.461Z,31.60
2023-08-24T09:54:13.103Z,31.50
2023-08-24T09:56:43.821Z,31.40
2023-08-24T09:59:16.234Z,31.40
2023-08-24T10:01:44.854Z,31.40
2023-08-24T10:04:34.852Z,31.50
2023-08-24T10:07:09.591Z,31.40
2023-08-24T10:09:43.644Z,31.10
2023-08-24T10:12:12.170Z,31.00
2023-08-24T10:14:56.030Z,30.60
2023-08-24T10:17:27.288Z,30.40
2023-08-24T10:19:59.184Z,30.00
2023-08-24T10:22:26.483Z,29.80
2023-08-24T10:25:01.068Z,29.60
2023-08-24T10:27:29.963Z,29.40
2023-08-24T10:30:00.392Z,29.30
2023-08-24T10:32:28.780Z,29.10
2023-08-24T10:34:56.387Z,29.20
2023-08-24T10:37:29.261Z,29.30
2023-08-24T10:39:57.020Z,29.40
2023-08-24T10:42:26.494Z,29.50
2023-08-24T10:44:54.130Z,29.40
2023-08-24T10:47:22.506Z,29.50
2023-08-24T10:49:56.102Z,29.60
2023-08-24T10:52:44.974Z,29.60
2023-08-24T10:55:26.794Z,29.60
2023-08-24T10:58:00.875Z,29.60
2023-08-24T11:00:30.203Z,29.60
2023-08-24T11:03:00.884Z,29.60
2023-08-24T11:05:31.072Z,29.60
2023-08-24T11:08:08.097Z,29.50
2023-08-24T11:10:44.658Z,29.60
2023-08-24T11:13:13.301Z,29.50
2023-08-24T11:15:51.953Z,29.40
2023-08-24T11:18:28.363Z,29.20
2023-08-24T11:20:56.957Z,29.00
2023-08-24T11:23:25.355Z,29.00
2023-08-24T11:25:56.838Z,29.00
2023-08-24T11:28:25.620Z,29.10
2023-08-24T11:30:53.786Z,29.10
2023-08-24T11:33:34.998Z,29.00
2023-08-24T11:36:05.048Z,28.80
2023-08-24T11:38:43.615Z,28.70
2023-08-24T11:41:15.132Z,28.80
2023-08-24T11:43:43.657Z,29.00
2023-08-24T11:46:18.478Z,29.00
2023-08-24T11:48:51.059Z,29.10
2023-08-24T11:51:26.258Z,29.30
2023-08-24T11:54:03.548Z,29.30
2023-08-24T11:56:30.932Z,29.40
2023-08-24T11:58:58.106Z,29.30
2023-08-24T12:01:26.120Z,29.20
2023-08-24T12:03:53.740Z,29.10
2023-08-24T12:06:21.259Z,28.80
2023-08-24T12:08:48.842Z,28.70
2023-08-24T12:11:21.049Z,28.60
2023-08-24T12:13:50.685Z,28.70
2023-08-24T12:16:22.202Z,28.60
2023-08-24T12:18:52.067Z,28.50
2023-08-24T12:21:19.836Z,28.50
2023-08-24T12:24:00.124Z,28.50
2023-08-24T12:26:29.905Z,28.40
2023-08-24T12:29:01.607Z,28.50
2023-08-24T12:31:32.415Z,28.40
2023-08-24T12:34:09.573Z,28.40
2023-08-24T12:36:40.098Z,28.40
2023-08-24T12:39:07.591Z,28.40
2023-08-24T12:41:35.104Z,28.20
2023-08-24T12:44:02.330Z,28.10
2023-08-24T12:46:29.961Z,28.10
2023-08-24T12:48:59.738Z,28.10
2023-08-24T12:51:29.507Z,28.20
2023-08-24T12:53:59.137Z,28.30
2023-08-24T12:56:26.824Z,28.40
2023-08-24T12:58:53.963Z,28.40
2023-08-24T13:01:21.463Z,28.70
2023-08-24T13:03:48.756Z,28.70
2023-08-24T13:06:24.294Z,28.90
2023-08-24T13:08:56.406Z,28.90
2023-08-24T13:11:28.805Z,29.00
2023-08-24T13:13:55.886Z,29.00
2023-08-24T13:16:27.850Z,29.10
2023-08-24T13:18:57.088Z,29.00
2023-08-24T13:21:26.138Z,28.90
2023-08-24T13:23:55.809Z,28.90
2023-08-24T13:26:23.874Z,28.90
2023-08-24T13:28:53.433Z,28.90
2023-08-24T13:31:21.016Z,29.00
2023-08-24T13:33:48.202Z,29.00
2023-08-24T13:36:17.986Z,28.90
2023-08-24T13:38:45.541Z,28.90
2023-08-24T13:41:15.528Z,28.90
2023-08-24T13:43:42.638Z,29.00
2023-08-24T13:46:10.302Z,29.00
2023-08-24T13:48:39.772Z,29.00
2023-08-24T13:51:09.658Z,28.90
2023-08-24T13:53:37.015Z,28.80
2023-08-24T13:56:04.808Z,28.70
2023-08-24T13:58:32.132Z,28.60
2023-08-24T14:01:06.789Z,28.60
2023-08-24T14:03:36.441Z,28.60
2023-08-24T14:06:04.150Z,28.60
2023-08-24T14:08:31.326Z,28.70
2023-08-24T14:10:58.717Z,28.60
2023-08-24T14:13:25.866Z,28.60
2023-08-24T14:15:53.706Z,28.50
2023-08-24T14:18:21.511Z,28.50
2023-08-24T14:20:50.021Z,28.50
2023-08-24T14:23:19.745Z,28.30
2023-08-24T14:25:47.959Z,28.20
2023-08-24T14:28:20.209Z,27.80
2023-08-24T14:30:47.553Z,27.70
2023-08-24T14:33:14.885Z,27.70
2023-08-24T14:35:42.314Z,27.70
2023-08-24T14:38:09.517Z,27.80
2023-08-24T14:40:41.588Z,27.80
2023-08-24T14:43:08.630Z,27.70
2023-08-24T14:45:38.694Z,27.70
2023-08-24T14:48:06.396Z,27.70
2023-08-24T14:50:33.897Z,27.60
2023-08-24T14:53:03.310Z,27.70
2023-08-24T14:55:30.747Z,27.60
2023-08-24T14:57:57.899Z,27.60
2023-08-24T15:00:25.406Z,27.50
2023-08-24T15:02:52.624Z,27.40
2023-08-24T15:05:21.604Z,27.40
2023-08-24T15:07:51.486Z,27.30
2023-08-24T15:10:21.500Z,27.30
2023-08-24T15:12:54.749Z,27.20
2023-08-24T15:15:22.277Z,27.10
2023-08-24T15:17:50.621Z,27.10
2023-08-24T15:20:18.950Z,27.10
2023-08-24T15:22:49.070Z,27.10
2023-08-24T15:25:16.500Z,27.10
2023-08-24T15:27:46.103Z,27.10
2023-08-24T15:30:13.931Z,27.10
2023-08-24T15:32:45.649Z,27.10
2023-08-24T15:35:13.118Z,27.10
2023-08-24T15:37:43.051Z,27.10
2023-08-24T15:40:11.399Z,27.10
2023-08-24T15:42:38.527Z,27.10
2023-08-24T15:45:06.352Z,27.10
2023-08-24T15:47:33.513Z,27.10
2023-08-24T15:50:03.484Z,27.20
2023-08-24T15:52:30.839Z,27.10
2023-08-24T15:55:00.758Z,27.10
2023-08-24T15:57:30.119Z,27.00
2023-08-24T15:59:57.648Z,26.90
2023-08-24T16:02:24.729Z,27.00
2023-08-24T16:04:56.725Z,26.90
2023-08-24T16:07:24.169Z,27.00
2023-08-24T16:09:51.540Z,27.00
2023-08-24T16:12:20.897Z,27.00
2023-08-24T16:14:48.343Z,27.10
2023-08-24T16:17:15.487Z,27.10
2023-08-24T16:19:45.564Z,27.10
2023-08-24T16:22:12.728Z,27.10
2023-08-24T16:24:40.083Z,27.00
2023-08-24T16:27:07.322Z,27.00
2023-08-24T16:29:34.821Z,26.90
2023-08-24T16:32:01.956Z,26.80
2023-08-24T16:34:29.472Z,26.80
2023-08-24T16:36:59.618Z,26.80
2023-08-24T16:39:30.796Z,26.70
2023-08-24T16:41:58.014Z,26.80
2023-08-24T16:44:25.440Z,26.70
2023-08-24T16:46:54.824Z,26.70
2023-08-24T16:49:24.445Z,26.50
2023-08-24T16:51:51.613Z,26.40
2023-08-24T16:54:22.166Z,26.20
2023-08-24T16:56:49.427Z,26.00
2023-08-24T16:59:16.828Z,26.00
2023-08-24T17:01:43.946Z,26.00
2023-08-24T17:04:11.429Z,25.90
2023-08-24T17:06:39.738Z,25.80
2023-08-24T17:09:09.562Z,25.80
2023-08-24T17:11:36.661Z,25.70
2023-08-24T17:14:04.128Z,25.80
2023-08-24T17:16:33.483Z,25.80
2023-08-24T17:19:03.584Z,25.80
2023-08-24T17:21:33.199Z,25.90
2023-08-24T17:24:00.577Z,26.90
2023-08-24T17:26:27.760Z,26.00
2023-08-24T17:28:55.177Z,26.00
2023-08-24T17:31:22.385Z,25.80
2023-08-24T17:33:52.439Z,25.60
2023-08-24T17:36:19.496Z,25.60
2023-08-24T17:38:59.319Z,25.40
2023-08-24T17:41:37.625Z,25.20
2023-08-24T17:44:05.664Z,24.90
2023-08-24T17:46:36.469Z,24.70
2023-08-24T17:49:03.912Z,24.50
2023-08-24T17:51:31.107Z,24.20
2023-08-24T17:53:58.626Z,24.10
2023-08-24T17:56:26.088Z,23.90
2023-08-24T17:58:57.934Z,23.70
2023-08-24T18:01:25.439Z,23.70
2023-08-24T18:03:52.882Z,23.60
2023-08-24T18:06:20.071Z,23.50
2023-08-24T18:08:51.764Z,23.50
2023-08-24T18:11:19.894Z,23.40
2023-08-24T18:13:47.374Z,23.30
2023-08-24T18:16:14.635Z,23.00
2023-08-24T18:18:42.955Z,23.00
2023-08-24T18:21:10.329Z,22.90
2023-08-24T18:23:40.002Z,22.80
2023-08-24T18:26:07.136Z,22.70
2023-08-24T18:28:34.600Z,22.70
2023-08-24T18:31:01.691Z,22.60
2023-08-24T18:33:29.170Z,22.50
2023-08-24T18:35:56.573Z,22.40
2023-08-24T18:38:24.880Z,22.40
2023-08-24T18:40:55.418Z,22.40
2023-08-24T18:43:23.462Z,22.40
2023-08-24T18:46:05.109Z,22.50
2023-08-24T18:48:32.975Z,22.50
2023-08-24T18:51:00.343Z,22.60
2023-08-24T18:53:32.544Z,22.50
2023-08-24T18:56:05.862Z,22.30
2023-08-24T18:58:50.121Z,22.00
2023-08-24T19:01:17.435Z,21.90
2023-08-24T19:03:45.129Z,21.80
2023-08-24T19:06:24.253Z,21.70
2023-08-24T19:08:55.010Z,21.60
2023-08-24T19:11:22.273Z,21.50
2023-08-24T19:13:49.885Z,21.40
2023-08-24T19:16:19.489Z,21.30
2023-08-24T19:18:49.670Z,21.30
2023-08-24T19:21:16.770Z,21.40
2023-08-24T19:23:44.388Z,21.40
2023-08-24T19:26:11.702Z,21.50
2023-08-24T19:28:41.324Z,21.60
2023-08-24T19:31:15.061Z,21.50
2023-08-24T19:33:42.650Z,21.40
2023-08-24T19:36:11.946Z,21.30
2023-08-24T19:38:39.407Z,21.10
2023-08-24T19:41:06.540Z,21.00
2023-08-24T19:43:34.085Z,20.90
2023-08-24T19:46:03.476Z,20.90
2023-08-24T19:48:33.400Z,20.80
2023-08-24T19:51:02.726Z,20.80
2023-08-24T19:53:32.396Z,20.70
2023-08-24T19:55:59.542Z,20.60
2023-08-24T19:58:29.592Z,20.60
2023-08-24T20:00:57.137Z,20.60
2023-08-24T20:03:24.796Z,20.50
2023-08-24T20:05:55.655Z,20.40
2023-08-24T20:08:24.348Z,20.40
2023-08-24T20:10:51.900Z,20.50
2023-08-24T20:13:19.508Z,20.50
2023-08-24T20:15:49.209Z,20.50
2023-08-24T20:18:19.611Z,20.50
2023-08-24T20:20:49.062Z,20.50
2023-08-24T20:23:18.750Z,20.30
2023-08-24T20:25:45.866Z,20.10
2023-08-24T20:28:13.488Z,19.80
2023-08-24T20:30:41.847Z,19.70
2023-08-24T20:33:09.343Z,19.70
2023-08-24T20:35:39.017Z,19.70
2023-08-24T20:38:06.482Z,19.70
2023-08-24T20:40:35.894Z,19.70
2023-08-24T20:43:05.618Z,19.80
2023-08-24T20:45:32.804Z,19.90
2023-08-24T20:48:00.291Z,19.90
2023-08-24T20:50:27.566Z,19.90
2023-08-24T20:52:54.930Z,20.00
2023-08-24T20:55:22.033Z,19.90
2023-08-24T20:57:52.186Z,19.90
2023-08-24T21:00:19.697Z,19.90
2023-08-24T21:02:47.226Z,19.90
2023-08-24T21:05:17.097Z,19.90
2023-08-24T21:07:44.511Z,19.90
2023-08-24T21:10:24.019Z,19.90
2023-08-24T21:12:51.393Z,19.90
2023-08-24T21:15:18.494Z,19.90
2023-08-24T21:17:48.515Z,19.90
2023-08-24T21:20:18.127Z,19.80
2023-08-24T21:22:46.455Z,19.80
2023-08-24T21:25:17.547Z,19.80
2023-08-24T21:27:44.894Z,19.80
2023-08-24T21:30:12.482Z,19.80
2023-08-24T21:33:01.368Z,19.70
2023-08-24T21:35:28.775Z,19.60
2023-08-24T21:37:56.449Z,19.60
2023-08-24T21:40:23.771Z,19.70
2023-08-24T21:42:51.243Z,19.70
2023-08-24T21:45:18.568Z,19.80
2023-08-24T21:47:46.173Z,19.80
2023-08-24T21:50:15.784Z,19.90
2023-08-24T21:52:45.455Z,19.90
2023-08-24T21:55:14.955Z,19.90
2023-08-24T21:57:44.931Z,19.60
2023-08-24T22:00:14.829Z,20.00
2023-08-24T22:02:44.919Z,20.00
2023-08-24T22:05:15.365Z,20.10
2023-08-24T22:07:42.880Z,20.00
2023-08-24T22:10:10.369Z,20.00
2023-08-24T22:12:37.535Z,20.00
2023-08-24T22:15:05.508Z,20.00
2023-08-24T22:17:32.690Z,20.10
2023-08-24T22:20:02.859Z,20.00
2023-08-24T22:22:30.336Z,20.00
2023-08-24T22:24:57.719Z,20.00
2023-08-24T22:27:24.844Z,19.90
2023-08-24T22:29:52.337Z,19.80
2023-08-24T22:32:19.488Z,19.80
2023-08-24T22:34:46.860Z,19.70
2023-08-24T22:37:16.636Z,19.70
2023-08-24T22:39:44.020Z,19.70
2023-08-24T22:42:13.399Z,19.70
2023-08-24T22:44:40.914Z,19.70
2023-08-24T22:47:08.056Z,19.70
2023-08-24T22:49:35.429Z,19.60
2023-08-24T22:52:05.038Z,19.60
2023-08-24T22:54:35.677Z,19.60
2023-08-24T22:57:02.831Z,19.60
2023-08-24T22:59:34.707Z,19.60
2023-08-24T23:02:06.325Z,19.70
2023-08-24T23:04:36.318Z,19.70
2023-08-24T23:07:07.074Z,19.70
2023-08-24T23:09:39.873Z,19.60
2023-08-24T23:12:07.226Z,19.60
2023-08-24T23:14:34.633Z,19.60
2023-08-24T23:17:02.516Z,19.70
2023-08-24T23:19:32.537Z,19.70
2023-08-24T23:21:59.618Z,19.70
2023-08-24T23:26:57.167Z,19.70
2023-08-24T23:29:24.736Z,19.70
2023-08-24T23:31:54.418Z,19.80
2023-08-24T23:34:21.846Z,19.80
2023-08-24T23:36:49.053Z,19.80
2023-08-24T23:39:18.911Z,19.90
2023-08-24T23:41:46.110Z,19.90
2023-08-24T23:44:13.483Z,19.90
2023-08-24T23:46:42.868Z,20.10
2023-08-24T23:49:10.272Z,20.30
2023-08-24T23:51:39.638Z,20.70
2023-08-24T23:54:15.107Z,21.00
2023-08-24T23:56:44.850Z,21.30
2023-08-24T23:59:21.250Z,21.50
